Johnson County (6A4)
Johnson County, TN
Field Elevation: 2240
Lat: 36°25.07N  Long: 81°49.51W
CTAF/Unicom Freq: 122.7000
   
    
Weather Advisories
9/20/2014 09:56 Z
Altimeter 30.26" Hg
Wind 190° @ 0 KT
Gusts --
Visibility 9 SM
Ceiling OVC024
Temperature 16° C (61° F)
Dewpoint 14° C (57° F)
Relative Humidity 91%
Density Altitude --
Condensation Altitude --
  Wind and Runways
Indicated Runway = 24
History
 
 
More Info
All DigiWx sites map
 
Johnson County Airport FBO
 
Airport IQ 5010
(M01) General Dewitt Spain Airport
(3M3) Collegedale Muni
 
about DigiWx
 
FAA Disclaimer: The data displayed is for advisory purposes only and is not to be used for flight planning or operations. For official data, please call (not available) to hear the current automated AWOS voice message.
  METAR 6A4 200956Z AUTO 19000KT 9SM OVC024 16/14 A3026